Skip Navigation Links
NOAA logo - Click to go to the NOAA homepage
NOAA's National Weather Service
Alaska Aviation Weather Unit
  NWS logo - Click to go to the NWS homepage
Left Navbar Graphic     09 AKDT = 17 GMT

   
NOAA is celebrating 200 years of science, service, and stewardship. Visit the NOAA 200th celebration Web site to learn more.
USA.gov is the U.S. Government's official Web portal to all Federal, state and local government Web resources and services.
Facebook
NWS on Facebook

Important Change Regarding the AAWU Web Presence

 

Over the last several months, the AAWU has been working to navigate its webpages to a nationally supported server. Security, as well as other needs, have necessitated the change.  In the process, we have made an effort to enhance the functionality of our website, as well as some of our products. As of June 20, 2017, aawu.arh.noaa.gov will be discontinued. The new AAWU web address is weather.gov/aawu. It is now live and will run in-parallel with the old site until it is discontinued. Please send any feedback or questions regarding the new webpages to nws.ar.aawu.webauthors@noaa.gov.  Thank you for your patience during this time of transition.
AAWU Home :: Display TAF Add Bookmark
TAF PASC 271124Z 2712/2812 VRB06KT P6SM SCT050 SCT100 BKN200=
METAR PASC 271153Z 09006KT 10SM FEW100 FEW200 M01/M02 A3002=

METAR PASC 271253Z 17005KT 10SM FEW100 M02/M03 A3003=

PASC 271337Z 23005KT 10SM FEW005 FEW100 M03/M04 A3004=

SPECI PASC 271337Z 23005KT 10SM FEW005 FEW100 M03/M04 A3004 RMK AO2
     T10281039=

METAR PASC 271353Z 22005KT 10SM FEW005 FEW100 M03/M04 A3004=

METAR PASC 271453Z 24005KT 10SM SCT040 M02/M02 A3006=

METAR PASC 271553Z 24011KT 10SM SCT040 M01/M02 A3006=

METAR PASC 271653Z 23007KT 10SM CLR 01/M01 A3008=


NOAA's National Weather Service
Alaska Aviation Weather Unit
6930 Sand Lake Road
Anchorage, AK 99502-1845
Disclaimer
Credits
Glossary
Privacy Policy
About Us
Career Opportunities
Contact AAWU Internet Services Site last modified: April, 17th 2012